sensor_id;sensor_type;location;lat;lon;timestamp;P1;durP1;ratioP1;P2;durP2;ratioP2
20170;SDS011;10245;51.344;6.620;2023-12-07T00:02:03;33.50;;;23.87;;
20170;SDS011;10245;51.344;6.620;2023-12-07T00:04:27;31.33;;;22.03;;
20170;SDS011;10245;51.344;6.620;2023-12-07T00:06:51;30.57;;;23.80;;
20170;SDS011;10245;51.344;6.620;2023-12-07T00:09:15;31.67;;;23.70;;
20170;SDS011;10245;51.344;6.620;2023-12-07T00:11:38;30.80;;;21.47;;
20170;SDS011;10245;51.344;6.620;2023-12-07T00:14:02;33.43;;;22.50;;
20170;SDS011;10245;51.344;6.620;2023-12-07T00:16:25;36.37;;;24.20;;
20170;SDS011;10245;51.344;6.620;2023-12-07T00:18:50;36.77;;;23.83;;
20170;SDS011;10245;51.344;6.620;2023-12-07T00:21:13;32.83;;;22.80;;
20170;SDS011;10245;51.344;6.620;2023-12-07T00:23:36;37.17;;;25.73;;
20170;SDS011;10245;51.344;6.620;2023-12-07T00:26:00;41.33;;;28.00;;
20170;SDS011;10245;51.344;6.620;2023-12-07T00:28:23;37.53;;;25.40;;
20170;SDS011;10245;51.344;6.620;2023-12-07T00:30:47;40.63;;;25.67;;
20170;SDS011;10245;51.344;6.620;2023-12-07T00:33:10;33.30;;;23.77;;
20170;SDS011;10245;51.344;6.620;2023-12-07T00:35:35;39.03;;;24.70;;
20170;SDS011;10245;51.344;6.620;2023-12-07T00:37:59;35.37;;;24.10;;
20170;SDS011;10245;51.344;6.620;2023-12-07T00:40:22;36.53;;;25.27;;
20170;SDS011;10245;51.344;6.620;2023-12-07T00:42:46;35.20;;;24.10;;
20170;SDS011;10245;51.344;6.620;2023-12-07T00:45:11;35.47;;;22.93;;
20170;SDS011;10245;51.344;6.620;2023-12-07T00:47:34;42.90;;;25.90;;
20170;SDS011;10245;51.344;6.620;2023-12-07T00:49:59;37.50;;;24.73;;
20170;SDS011;10245;51.344;6.620;2023-12-07T00:52:23;36.67;;;25.27;;
20170;SDS011;10245;51.344;6.620;2023-12-07T00:54:47;37.07;;;24.50;;
20170;SDS011;10245;51.344;6.620;2023-12-07T00:57:11;38.20;;;24.63;;
20170;SDS011;10245;51.344;6.620;2023-12-07T00:59:34;32.93;;;23.43;;
20170;SDS011;10245;51.344;6.620;2023-12-07T01:01:58;35.33;;;25.27;;
20170;SDS011;10245;51.344;6.620;2023-12-07T01:04:22;38.20;;;25.13;;
20170;SDS011;10245;51.344;6.620;2023-12-07T01:06:46;36.60;;;24.57;;
20170;SDS011;10245;51.344;6.620;2023-12-07T01:09:11;35.20;;;25.27;;
20170;SDS011;10245;51.344;6.620;2023-12-07T01:11:34;41.10;;;24.73;;
20170;SDS011;10245;51.344;6.620;2023-12-07T01:13:58;37.03;;;25.23;;
20170;SDS011;10245;51.344;6.620;2023-12-07T01:16:21;35.70;;;24.23;;
20170;SDS011;10245;51.344;6.620;2023-12-07T01:18:46;39.07;;;25.27;;
20170;SDS011;10245;51.344;6.620;2023-12-07T01:21:10;38.37;;;25.80;;
20170;SDS011;10245;51.344;6.620;2023-12-07T01:23:34;35.27;;;24.97;;
20170;SDS011;10245;51.344;6.620;2023-12-07T01:25:58;37.63;;;25.87;;
20170;SDS011;10245;51.344;6.620;2023-12-07T01:28:24;34.23;;;24.90;;
20170;SDS011;10245;51.344;6.620;2023-12-07T01:30:48;33.20;;;24.10;;
20170;SDS011;10245;51.344;6.620;2023-12-07T01:33:11;35.50;;;24.07;;
20170;SDS011;10245;51.344;6.620;2023-12-07T01:35:34;36.10;;;24.00;;
20170;SDS011;10245;51.344;6.620;2023-12-07T01:37:57;37.63;;;24.37;;
20170;SDS011;10245;51.344;6.620;2023-12-07T01:40:21;37.03;;;24.60;;
20170;SDS011;10245;51.344;6.620;2023-12-07T01:42:50;35.70;;;23.60;;
20170;SDS011;10245;51.344;6.620;2023-12-07T01:45:13;35.10;;;23.03;;
20170;SDS011;10245;51.344;6.620;2023-12-07T01:47:37;38.77;;;24.40;;
20170;SDS011;10245;51.344;6.620;2023-12-07T01:50:01;104.80;;;34.53;;
20170;SDS011;10245;51.344;6.620;2023-12-07T01:52:28;43.67;;;27.43;;
20170;SDS011;10245;51.344;6.620;2023-12-07T01:54:53;41.60;;;25.90;;
20170;SDS011;10245;51.344;6.620;2023-12-07T01:57:17;37.07;;;24.17;;
20170;SDS011;10245;51.344;6.620;2023-12-07T01:59:42;39.00;;;25.27;;
20170;SDS011;10245;51.344;6.620;2023-12-07T02:02:05;36.13;;;23.37;;
20170;SDS011;10245;51.344;6.620;2023-12-07T02:04:28;40.53;;;26.93;;
20170;SDS011;10245;51.344;6.620;2023-12-07T02:06:52;34.07;;;24.03;;
20170;SDS011;10245;51.344;6.620;2023-12-07T02:09:19;33.83;;;23.23;;
20170;SDS011;10245;51.344;6.620;2023-12-07T02:11:43;35.40;;;22.80;;
20170;SDS011;10245;51.344;6.620;2023-12-07T02:14:06;33.23;;;22.93;;
20170;SDS011;10245;51.344;6.620;2023-12-07T02:16:35;32.67;;;21.63;;
20170;SDS011;10245;51.344;6.620;2023-12-07T02:19:12;38.83;;;23.77;;
20170;SDS011;10245;51.344;6.620;2023-12-07T02:22:10;37.33;;;22.83;;
20170;SDS011;10245;51.344;6.620;2023-12-07T02:24:41;32.77;;;22.27;;
20170;SDS011;10245;51.344;6.620;2023-12-07T02:27:12;35.07;;;21.83;;
20170;SDS011;10245;51.344;6.620;2023-12-07T02:29:36;34.17;;;23.67;;
20170;SDS011;10245;51.344;6.620;2023-12-07T02:32:00;33.63;;;24.10;;
20170;SDS011;10245;51.344;6.620;2023-12-07T02:34:23;33.03;;;23.20;;
20170;SDS011;10245;51.344;6.620;2023-12-07T02:36:47;36.97;;;23.67;;
20170;SDS011;10245;51.344;6.620;2023-12-07T02:39:16;37.13;;;24.73;;
20170;SDS011;10245;51.344;6.620;2023-12-07T02:41:40;41.37;;;25.83;;
20170;SDS011;10245;51.344;6.620;2023-12-07T02:44:07;47.07;;;29.23;;
20170;SDS011;10245;51.344;6.620;2023-12-07T02:46:31;42.07;;;27.67;;
20170;SDS011;10245;51.344;6.620;2023-12-07T02:48:56;46.27;;;25.57;;
20170;SDS011;10245;51.344;6.620;2023-12-07T02:51:20;38.53;;;25.67;;
20170;SDS011;10245;51.344;6.620;2023-12-07T02:53:44;38.13;;;24.20;;
20170;SDS011;10245;51.344;6.620;2023-12-07T02:56:08;42.87;;;24.87;;
20170;SDS011;10245;51.344;6.620;2023-12-07T02:58:32;31.27;;;22.77;;
20170;SDS011;10245;51.344;6.620;2023-12-07T03:00:56;320.03;;;44.03;;
20170;SDS011;10245;51.344;6.620;2023-12-07T03:03:20;481.90;;;63.80;;
20170;SDS011;10245;51.344;6.620;2023-12-07T03:05:44;307.37;;;43.87;;
20170;SDS011;10245;51.344;6.620;2023-12-07T03:08:07;46.57;;;29.10;;
20170;SDS011;10245;51.344;6.620;2023-12-07T03:10:30;63.23;;;32.23;;
20170;SDS011;10245;51.344;6.620;2023-12-07T03:12:53;64.93;;;26.73;;
20170;SDS011;10245;51.344;6.620;2023-12-07T03:15:17;52.03;;;28.60;;
20170;SDS011;10245;51.344;6.620;2023-12-07T03:17:41;50.00;;;29.93;;
20170;SDS011;10245;51.344;6.620;2023-12-07T03:20:06;51.50;;;30.07;;
20170;SDS011;10245;51.344;6.620;2023-12-07T03:22:31;42.67;;;28.23;;
20170;SDS011;10245;51.344;6.620;2023-12-07T03:24:55;41.37;;;28.40;;
20170;SDS011;10245;51.344;6.620;2023-12-07T03:27:18;41.50;;;26.67;;
20170;SDS011;10245;51.344;6.620;2023-12-07T03:29:42;49.60;;;28.40;;
20170;SDS011;10245;51.344;6.620;2023-12-07T03:32:06;38.13;;;26.40;;
20170;SDS011;10245;51.344;6.620;2023-12-07T03:34:30;38.30;;;25.53;;
20170;SDS011;10245;51.344;6.620;2023-12-07T03:36:54;43.40;;;26.83;;
20170;SDS011;10245;51.344;6.620;2023-12-07T03:39:18;39.10;;;26.30;;
20170;SDS011;10245;51.344;6.620;2023-12-07T03:41:43;38.33;;;25.47;;
20170;SDS011;10245;51.344;6.620;2023-12-07T03:44:08;33.17;;;23.07;;
20170;SDS011;10245;51.344;6.620;2023-12-07T03:46:31;37.90;;;24.60;;
20170;SDS011;10245;51.344;6.620;2023-12-07T03:48:54;37.97;;;25.00;;
20170;SDS011;10245;51.344;6.620;2023-12-07T03:51:20;36.83;;;23.57;;
20170;SDS011;10245;51.344;6.620;2023-12-07T03:53:43;39.63;;;26.10;;
20170;SDS011;10245;51.344;6.620;2023-12-07T03:56:05;38.60;;;24.50;;
20170;SDS011;10245;51.344;6.620;2023-12-07T03:58:29;45.27;;;26.07;;
20170;SDS011;10245;51.344;6.620;2023-12-07T04:00:53;39.23;;;25.27;;
20170;SDS011;10245;51.344;6.620;2023-12-07T04:03:16;45.13;;;27.07;;
20170;SDS011;10245;51.344;6.620;2023-12-07T04:05:40;41.03;;;25.07;;
20170;SDS011;10245;51.344;6.620;2023-12-07T04:08:06;61.43;;;31.93;;
20170;SDS011;10245;51.344;6.620;2023-12-07T04:10:29;66.60;;;34.50;;
20170;SDS011;10245;51.344;6.620;2023-12-07T04:12:52;51.77;;;31.40;;
20170;SDS011;10245;51.344;6.620;2023-12-07T04:15:16;46.07;;;29.30;;
20170;SDS011;10245;51.344;6.620;2023-12-07T04:17:40;88.10;;;39.63;;
20170;SDS011;10245;51.344;6.620;2023-12-07T04:20:03;74.77;;;38.30;;
20170;SDS011;10245;51.344;6.620;2023-12-07T04:22:28;51.50;;;30.10;;
20170;SDS011;10245;51.344;6.620;2023-12-07T04:24:53;64.13;;;36.07;;
20170;SDS011;10245;51.344;6.620;2023-12-07T04:27:17;48.10;;;29.53;;
20170;SDS011;10245;51.344;6.620;2023-12-07T04:29:40;60.47;;;35.53;;
20170;SDS011;10245;51.344;6.620;2023-12-07T04:32:04;53.70;;;31.63;;
20170;SDS011;10245;51.344;6.620;2023-12-07T04:34:28;56.00;;;33.77;;
20170;SDS011;10245;51.344;6.620;2023-12-07T04:36:51;50.13;;;30.57;;
20170;SDS011;10245;51.344;6.620;2023-12-07T04:39:15;51.23;;;30.40;;
20170;SDS011;10245;51.344;6.620;2023-12-07T04:41:39;48.57;;;28.90;;
20170;SDS011;10245;51.344;6.620;2023-12-07T04:44:03;51.17;;;28.83;;
20170;SDS011;10245;51.344;6.620;2023-12-07T04:46:26;67.67;;;35.90;;
20170;SDS011;10245;51.344;6.620;2023-12-07T04:48:51;81.50;;;38.30;;
20170;SDS011;10245;51.344;6.620;2023-12-07T04:51:14;62.90;;;35.50;;
20170;SDS011;10245;51.344;6.620;2023-12-07T04:53:38;48.67;;;30.33;;
20170;SDS011;10245;51.344;6.620;2023-12-07T04:56:02;81.80;;;38.13;;
20170;SDS011;10245;51.344;6.620;2023-12-07T04:58:27;80.23;;;38.67;;
20170;SDS011;10245;51.344;6.620;2023-12-07T05:00:50;84.17;;;40.60;;
20170;SDS011;10245;51.344;6.620;2023-12-07T05:03:14;96.00;;;41.87;;
20170;SDS011;10245;51.344;6.620;2023-12-07T05:05:37;67.70;;;36.27;;
20170;SDS011;10245;51.344;6.620;2023-12-07T05:08:00;63.63;;;34.67;;
20170;SDS011;10245;51.344;6.620;2023-12-07T05:10:23;92.60;;;41.10;;
20170;SDS011;10245;51.344;6.620;2023-12-07T05:12:47;94.97;;;41.13;;
20170;SDS011;10245;51.344;6.620;2023-12-07T05:15:11;97.17;;;41.67;;
20170;SDS011;10245;51.344;6.620;2023-12-07T05:17:35;152.40;;;49.53;;
20170;SDS011;10245;51.344;6.620;2023-12-07T05:19:58;191.57;;;58.37;;
20170;SDS011;10245;51.344;6.620;2023-12-07T05:22:21;349.60;;;62.93;;
20170;SDS011;10245;51.344;6.620;2023-12-07T05:24:45;490.10;;;80.87;;
20170;SDS011;10245;51.344;6.620;2023-12-07T05:27:11;362.00;;;69.97;;
20170;SDS011;10245;51.344;6.620;2023-12-07T05:29:34;263.97;;;59.80;;
20170;SDS011;10245;51.344;6.620;2023-12-07T05:32:01;497.17;;;77.33;;
20170;SDS011;10245;51.344;6.620;2023-12-07T05:34:25;297.10;;;57.13;;
20170;SDS011;10245;51.344;6.620;2023-12-07T05:36:48;424.10;;;72.10;;
20170;SDS011;10245;51.344;6.620;2023-12-07T05:39:12;681.57;;;94.97;;
20170;SDS011;10245;51.344;6.620;2023-12-07T05:41:35;378.93;;;60.17;;
20170;SDS011;10245;51.344;6.620;2023-12-07T05:43:59;178.37;;;50.93;;
20170;SDS011;10245;51.344;6.620;2023-12-07T05:46:22;349.10;;;61.80;;
20170;SDS011;10245;51.344;6.620;2023-12-07T05:48:46;135.80;;;43.80;;
20170;SDS011;10245;51.344;6.620;2023-12-07T05:51:12;437.13;;;75.37;;
20170;SDS011;10245;51.344;6.620;2023-12-07T05:53:36;382.67;;;67.50;;
20170;SDS011;10245;51.344;6.620;2023-12-07T05:55:59;90.07;;;39.63;;
20170;SDS011;10245;51.344;6.620;2023-12-07T05:58:25;215.83;;;50.40;;
20170;SDS011;10245;51.344;6.620;2023-12-07T06:00:48;211.03;;;49.53;;
20170;SDS011;10245;51.344;6.620;2023-12-07T06:03:12;518.60;;;78.43;;
20170;SDS011;10245;51.344;6.620;2023-12-07T06:05:38;262.37;;;55.23;;
20170;SDS011;10245;51.344;6.620;2023-12-07T06:08:02;318.00;;;57.57;;
20170;SDS011;10245;51.344;6.620;2023-12-07T06:10:26;243.70;;;54.83;;
20170;SDS011;10245;51.344;6.620;2023-12-07T06:12:49;368.50;;;64.93;;
20170;SDS011;10245;51.344;6.620;2023-12-07T06:15:13;377.30;;;70.13;;
20170;SDS011;10245;51.344;6.620;2023-12-07T06:17:36;108.63;;;43.23;;
20170;SDS011;10245;51.344;6.620;2023-12-07T06:19:59;103.37;;;42.17;;
20170;SDS011;10245;51.344;6.620;2023-12-07T06:22:26;171.83;;;45.07;;
20170;SDS011;10245;51.344;6.620;2023-12-07T06:24:49;203.30;;;52.00;;
20170;SDS011;10245;51.344;6.620;2023-12-07T06:27:12;277.57;;;57.57;;
20170;SDS011;10245;51.344;6.620;2023-12-07T06:29:36;150.33;;;49.10;;
20170;SDS011;10245;51.344;6.620;2023-12-07T06:31:59;328.90;;;62.20;;
20170;SDS011;10245;51.344;6.620;2023-12-07T06:34:23;394.90;;;69.27;;
20170;SDS011;10245;51.344;6.620;2023-12-07T06:36:46;198.60;;;50.40;;
20170;SDS011;10245;51.344;6.620;2023-12-07T06:39:11;133.30;;;45.70;;
20170;SDS011;10245;51.344;6.620;2023-12-07T06:41:35;147.13;;;47.97;;
20170;SDS011;10245;51.344;6.620;2023-12-07T06:43:58;89.77;;;39.17;;
20170;SDS011;10245;51.344;6.620;2023-12-07T06:46:22;90.37;;;37.63;;
20170;SDS011;10245;51.344;6.620;2023-12-07T06:48:45;129.83;;;45.03;;
20170;SDS011;10245;51.344;6.620;2023-12-07T06:51:09;82.47;;;38.33;;
20170;SDS011;10245;51.344;6.620;2023-12-07T06:53:34;187.47;;;49.33;;
20170;SDS011;10245;51.344;6.620;2023-12-07T06:55:58;144.40;;;41.10;;
20170;SDS011;10245;51.344;6.620;2023-12-07T06:58:22;719.83;;;71.60;;
20170;SDS011;10245;51.344;6.620;2023-12-07T07:00:46;1242.90;;;110.53;;
20170;SDS011;10245;51.344;6.620;2023-12-07T07:03:10;940.20;;;90.07;;
20170;SDS011;10245;51.344;6.620;2023-12-07T07:05:33;1284.90;;;114.60;;
20170;SDS011;10245;51.344;6.620;2023-12-07T07:07:57;986.63;;;92.80;;
20170;SDS011;10245;51.344;6.620;2023-12-07T07:10:20;267.37;;;39.53;;
20170;SDS011;10245;51.344;6.620;2023-12-07T07:12:45;1213.13;;;94.37;;
20170;SDS011;10245;51.344;6.620;2023-12-07T07:15:08;214.33;;;41.87;;
20170;SDS011;10245;51.344;6.620;2023-12-07T07:17:32;507.73;;;53.07;;
20170;SDS011;10245;51.344;6.620;2023-12-07T07:19:55;599.10;;;53.83;;
20170;SDS011;10245;51.344;6.620;2023-12-07T07:22:18;141.53;;;32.47;;
20170;SDS011;10245;51.344;6.620;2023-12-07T07:24:42;755.17;;;69.57;;
20170;SDS011;10245;51.344;6.620;2023-12-07T07:27:05;243.37;;;40.10;;
20170;SDS011;10245;51.344;6.620;2023-12-07T07:29:30;450.67;;;51.90;;
20170;SDS011;10245;51.344;6.620;2023-12-07T07:31:54;1067.87;;;86.40;;
20170;SDS011;10245;51.344;6.620;2023-12-07T07:34:18;167.93;;;34.83;;
20170;SDS011;10245;51.344;6.620;2023-12-07T07:36:42;843.53;;;83.77;;
20170;SDS011;10245;51.344;6.620;2023-12-07T07:39:06;1395.30;;;116.87;;
20170;SDS011;10245;51.344;6.620;2023-12-07T07:41:29;926.80;;;87.47;;
20170;SDS011;10245;51.344;6.620;2023-12-07T07:43:53;925.17;;;78.77;;
20170;SDS011;10245;51.344;6.620;2023-12-07T07:46:18;138.97;;;37.87;;
20170;SDS011;10245;51.344;6.620;2023-12-07T07:48:41;726.57;;;71.37;;
20170;SDS011;10245;51.344;6.620;2023-12-07T07:51:05;798.40;;;74.63;;
20170;SDS011;10245;51.344;6.620;2023-12-07T07:53:28;563.97;;;58.27;;
20170;SDS011;10245;51.344;6.620;2023-12-07T07:55:52;85.77;;;35.57;;
20170;SDS011;10245;51.344;6.620;2023-12-07T07:58:16;153.93;;;37.40;;
20170;SDS011;10245;51.344;6.620;2023-12-07T08:00:39;836.17;;;84.93;;
20170;SDS011;10245;51.344;6.620;2023-12-07T08:03:04;388.00;;;49.03;;
20170;SDS011;10245;51.344;6.620;2023-12-07T08:05:28;342.77;;;50.27;;
20170;SDS011;10245;51.344;6.620;2023-12-07T08:07:51;308.53;;;53.43;;
20170;SDS011;10245;51.344;6.620;2023-12-07T08:10:14;226.13;;;42.23;;
20170;SDS011;10245;51.344;6.620;2023-12-07T08:12:39;254.47;;;47.67;;
20170;SDS011;10245;51.344;6.620;2023-12-07T08:15:03;169.83;;;42.63;;
20170;SDS011;10245;51.344;6.620;2023-12-07T08:17:32;203.83;;;47.20;;
20170;SDS011;10245;51.344;6.620;2023-12-07T08:19:56;111.00;;;38.80;;
20170;SDS011;10245;51.344;6.620;2023-12-07T08:22:20;77.63;;;36.47;;
20170;SDS011;10245;51.344;6.620;2023-12-07T08:24:44;100.67;;;41.73;;
20170;SDS011;10245;51.344;6.620;2023-12-07T08:27:17;110.40;;;40.10;;
20170;SDS011;10245;51.344;6.620;2023-12-07T08:29:41;174.30;;;46.07;;
20170;SDS011;10245;51.344;6.620;2023-12-07T08:32:05;134.10;;;44.13;;
20170;SDS011;10245;51.344;6.620;2023-12-07T08:34:28;138.00;;;45.53;;
20170;SDS011;10245;51.344;6.620;2023-12-07T08:36:53;178.13;;;48.70;;
20170;SDS011;10245;51.344;6.620;2023-12-07T08:39:16;154.70;;;46.97;;
20170;SDS011;10245;51.344;6.620;2023-12-07T08:41:39;99.43;;;39.27;;
20170;SDS011;10245;51.344;6.620;2023-12-07T08:44:04;86.80;;;38.90;;
20170;SDS011;10245;51.344;6.620;2023-12-07T08:46:27;82.20;;;39.27;;
20170;SDS011;10245;51.344;6.620;2023-12-07T08:48:51;81.97;;;38.07;;
20170;SDS011;10245;51.344;6.620;2023-12-07T08:51:15;81.70;;;37.50;;
20170;SDS011;10245;51.344;6.620;2023-12-07T08:53:40;55.53;;;31.13;;
20170;SDS011;10245;51.344;6.620;2023-12-07T08:56:03;54.80;;;29.97;;
20170;SDS011;10245;51.344;6.620;2023-12-07T08:58:27;57.30;;;31.20;;
20170;SDS011;10245;51.344;6.620;2023-12-07T09:00:50;59.77;;;31.40;;
20170;SDS011;10245;51.344;6.620;2023-12-07T09:03:14;52.50;;;30.90;;
20170;SDS011;10245;51.344;6.620;2023-12-07T09:05:38;50.53;;;29.17;;
20170;SDS011;10245;51.344;6.620;2023-12-07T09:08:01;53.97;;;29.17;;
20170;SDS011;10245;51.344;6.620;2023-12-07T09:10:26;44.73;;;26.87;;
20170;SDS011;10245;51.344;6.620;2023-12-07T09:12:50;43.33;;;26.27;;
20170;SDS011;10245;51.344;6.620;2023-12-07T09:15:13;42.23;;;26.90;;
20170;SDS011;10245;51.344;6.620;2023-12-07T09:17:37;43.87;;;28.30;;
20170;SDS011;10245;51.344;6.620;2023-12-07T09:20:01;41.80;;;25.80;;
20170;SDS011;10245;51.344;6.620;2023-12-07T09:22:26;40.50;;;24.03;;
20170;SDS011;10245;51.344;6.620;2023-12-07T09:24:58;40.93;;;24.80;;
20170;SDS011;10245;51.344;6.620;2023-12-07T09:27:23;44.93;;;26.53;;
20170;SDS011;10245;51.344;6.620;2023-12-07T09:29:47;42.77;;;25.27;;
20170;SDS011;10245;51.344;6.620;2023-12-07T09:32:12;38.20;;;24.47;;
20170;SDS011;10245;51.344;6.620;2023-12-07T09:34:36;41.17;;;25.57;;
20170;SDS011;10245;51.344;6.620;2023-12-07T09:37:05;41.50;;;26.23;;
20170;SDS011;10245;51.344;6.620;2023-12-07T09:39:29;41.73;;;25.10;;
20170;SDS011;10245;51.344;6.620;2023-12-07T09:41:53;44.80;;;25.47;;
20170;SDS011;10245;51.344;6.620;2023-12-07T09:44:18;39.90;;;26.10;;
20170;SDS011;10245;51.344;6.620;2023-12-07T09:46:41;37.37;;;23.80;;
20170;SDS011;10245;51.344;6.620;2023-12-07T09:49:05;40.50;;;24.93;;
20170;SDS011;10245;51.344;6.620;2023-12-07T09:51:28;38.80;;;24.67;;
20170;SDS011;10245;51.344;6.620;2023-12-07T09:53:54;38.60;;;23.97;;
20170;SDS011;10245;51.344;6.620;2023-12-07T09:56:18;40.20;;;24.30;;
20170;SDS011;10245;51.344;6.620;2023-12-07T09:58:41;39.37;;;23.13;;
20170;SDS011;10245;51.344;6.620;2023-12-07T10:01:06;37.20;;;23.67;;
20170;SDS011;10245;51.344;6.620;2023-12-07T10:03:30;39.33;;;23.73;;
20170;SDS011;10245;51.344;6.620;2023-12-07T10:05:55;41.57;;;23.53;;
20170;SDS011;10245;51.344;6.620;2023-12-07T10:08:31;37.20;;;24.13;;
20170;SDS011;10245;51.344;6.620;2023-12-07T10:11:04;36.50;;;22.93;;
20170;SDS011;10245;51.344;6.620;2023-12-07T10:13:30;38.17;;;23.63;;
20170;SDS011;10245;51.344;6.620;2023-12-07T10:15:55;33.30;;;23.47;;
20170;SDS011;10245;51.344;6.620;2023-12-07T10:18:31;41.93;;;23.40;;
20170;SDS011;10245;51.344;6.620;2023-12-07T10:20:55;35.57;;;23.30;;
20170;SDS011;10245;51.344;6.620;2023-12-07T10:23:18;35.83;;;24.27;;
20170;SDS011;10245;51.344;6.620;2023-12-07T10:25:42;41.50;;;24.40;;
20170;SDS011;10245;51.344;6.620;2023-12-07T10:28:05;38.83;;;23.50;;
20170;SDS011;10245;51.344;6.620;2023-12-07T10:30:30;36.43;;;22.83;;
20170;SDS011;10245;51.344;6.620;2023-12-07T10:32:54;34.67;;;22.13;;
20170;SDS011;10245;51.344;6.620;2023-12-07T10:35:19;34.67;;;22.97;;
20170;SDS011;10245;51.344;6.620;2023-12-07T10:37:42;37.17;;;22.53;;
20170;SDS011;10245;51.344;6.620;2023-12-07T10:40:06;34.37;;;21.93;;
20170;SDS011;10245;51.344;6.620;2023-12-07T10:42:32;32.40;;;21.40;;
20170;SDS011;10245;51.344;6.620;2023-12-07T10:44:59;35.23;;;21.67;;
20170;SDS011;10245;51.344;6.620;2023-12-07T10:47:28;33.93;;;21.73;;
20170;SDS011;10245;51.344;6.620;2023-12-07T10:49:54;34.23;;;22.57;;
20170;SDS011;10245;51.344;6.620;2023-12-07T10:52:23;37.77;;;22.80;;
20170;SDS011;10245;51.344;6.620;2023-12-07T10:54:50;36.87;;;23.83;;
20170;SDS011;10245;51.344;6.620;2023-12-07T10:57:20;35.67;;;22.63;;
20170;SDS011;10245;51.344;6.620;2023-12-07T10:59:45;34.77;;;23.77;;
20170;SDS011;10245;51.344;6.620;2023-12-07T11:02:12;35.17;;;22.60;;
20170;SDS011;10245;51.344;6.620;2023-12-07T11:04:40;35.30;;;22.07;;
20170;SDS011;10245;51.344;6.620;2023-12-07T11:07:07;37.77;;;24.27;;
20170;SDS011;10245;51.344;6.620;2023-12-07T11:09:38;33.47;;;22.77;;
20170;SDS011;10245;51.344;6.620;2023-12-07T11:12:07;34.40;;;21.03;;
20170;SDS011;10245;51.344;6.620;2023-12-07T11:14:37;30.77;;;21.80;;
20170;SDS011;10245;51.344;6.620;2023-12-07T11:17:02;31.03;;;21.07;;
20170;SDS011;10245;51.344;6.620;2023-12-07T11:22:10;35.17;;;21.13;;
20170;SDS011;10245;51.344;6.620;2023-12-07T11:24:35;30.67;;;20.87;;
20170;SDS011;10245;51.344;6.620;2023-12-07T11:26:58;30.67;;;20.67;;
20170;SDS011;10245;51.344;6.620;2023-12-07T11:29:21;29.73;;;19.83;;
20170;SDS011;10245;51.344;6.620;2023-12-07T11:31:51;32.63;;;21.10;;
20170;SDS011;10245;51.344;6.620;2023-12-07T11:34:33;29.60;;;19.33;;
20170;SDS011;10245;51.344;6.620;2023-12-07T11:36:57;29.00;;;19.30;;
20170;SDS011;10245;51.344;6.620;2023-12-07T11:39:22;28.13;;;20.03;;
20170;SDS011;10245;51.344;6.620;2023-12-07T11:41:51;33.03;;;20.40;;
20170;SDS011;10245;51.344;6.620;2023-12-07T11:44:17;27.20;;;19.83;;
20170;SDS011;10245;51.344;6.620;2023-12-07T11:46:40;29.77;;;20.03;;
20170;SDS011;10245;51.344;6.620;2023-12-07T11:49:03;30.73;;;20.17;;
20170;SDS011;10245;51.344;6.620;2023-12-07T11:51:48;29.53;;;18.67;;
20170;SDS011;10245;51.344;6.620;2023-12-07T11:54:12;29.43;;;20.03;;
20170;SDS011;10245;51.344;6.620;2023-12-07T11:56:40;30.07;;;19.37;;
20170;SDS011;10245;51.344;6.620;2023-12-07T11:59:04;35.27;;;19.80;;
20170;SDS011;10245;51.344;6.620;2023-12-07T12:01:28;30.77;;;20.03;;
20170;SDS011;10245;51.344;6.620;2023-12-07T12:03:52;29.20;;;20.70;;
20170;SDS011;10245;51.344;6.620;2023-12-07T12:06:16;27.93;;;19.47;;
20170;SDS011;10245;51.344;6.620;2023-12-07T12:08:39;29.03;;;19.57;;
20170;SDS011;10245;51.344;6.620;2023-12-07T12:11:04;28.00;;;19.73;;
20170;SDS011;10245;51.344;6.620;2023-12-07T12:13:29;31.57;;;19.87;;
20170;SDS011;10245;51.344;6.620;2023-12-07T12:15:56;26.33;;;18.53;;
20170;SDS011;10245;51.344;6.620;2023-12-07T12:18:25;28.60;;;20.03;;
20170;SDS011;10245;51.344;6.620;2023-12-07T12:20:50;30.80;;;20.40;;
20170;SDS011;10245;51.344;6.620;2023-12-07T12:23:13;27.00;;;18.67;;
20170;SDS011;10245;51.344;6.620;2023-12-07T12:25:38;31.48;;;20.42;;
20170;SDS011;10245;51.344;6.620;2023-12-07T12:28:02;30.03;;;20.13;;
20170;SDS011;10245;51.344;6.620;2023-12-07T12:30:28;29.33;;;20.33;;
20170;SDS011;10245;51.344;6.620;2023-12-07T12:32:53;29.20;;;19.90;;
20170;SDS011;10245;51.344;6.620;2023-12-07T12:35:16;29.67;;;20.57;;
20170;SDS011;10245;51.344;6.620;2023-12-07T12:37:41;30.87;;;20.80;;
20170;SDS011;10245;51.344;6.620;2023-12-07T12:40:05;28.37;;;20.13;;
20170;SDS011;10245;51.344;6.620;2023-12-07T12:42:29;24.07;;;17.90;;
20170;SDS011;10245;51.344;6.620;2023-12-07T12:44:53;28.43;;;19.97;;
20170;SDS011;10245;51.344;6.620;2023-12-07T12:47:17;30.07;;;20.43;;
20170;SDS011;10245;51.344;6.620;2023-12-07T12:49:41;27.30;;;19.27;;
20170;SDS011;10245;51.344;6.620;2023-12-07T12:52:09;31.00;;;19.80;;
20170;SDS011;10245;51.344;6.620;2023-12-07T12:54:34;27.53;;;18.03;;
20170;SDS011;10245;51.344;6.620;2023-12-07T12:56:57;26.87;;;18.07;;
20170;SDS011;10245;51.344;6.620;2023-12-07T12:59:21;25.40;;;17.37;;
20170;SDS011;10245;51.344;6.620;2023-12-07T13:01:44;25.92;;;17.90;;
20170;SDS011;10245;51.344;6.620;2023-12-07T13:04:09;23.60;;;16.93;;
20170;SDS011;10245;51.344;6.620;2023-12-07T13:06:32;25.17;;;17.73;;
20170;SDS011;10245;51.344;6.620;2023-12-07T13:08:55;24.98;;;17.40;;
20170;SDS011;10245;51.344;6.620;2023-12-07T13:11:19;24.87;;;17.93;;
20170;SDS011;10245;51.344;6.620;2023-12-07T13:13:42;25.60;;;17.40;;
20170;SDS011;10245;51.344;6.620;2023-12-07T13:16:07;25.47;;;17.50;;
20170;SDS011;10245;51.344;6.620;2023-12-07T13:18:33;23.47;;;16.33;;
20170;SDS011;10245;51.344;6.620;2023-12-07T13:20:57;25.57;;;16.73;;
20170;SDS011;10245;51.344;6.620;2023-12-07T13:23:21;24.87;;;17.20;;
20170;SDS011;10245;51.344;6.620;2023-12-07T13:25:46;22.80;;;15.57;;
20170;SDS011;10245;51.344;6.620;2023-12-07T13:28:09;22.63;;;15.63;;
20170;SDS011;10245;51.344;6.620;2023-12-07T13:30:32;26.30;;;15.90;;
20170;SDS011;10245;51.344;6.620;2023-12-07T13:32:56;25.27;;;16.93;;
20170;SDS011;10245;51.344;6.620;2023-12-07T13:35:25;24.90;;;15.70;;
20170;SDS011;10245;51.344;6.620;2023-12-07T13:37:50;24.85;;;16.75;;
20170;SDS011;10245;51.344;6.620;2023-12-07T13:40:13;23.33;;;15.25;;
20170;SDS011;10245;51.344;6.620;2023-12-07T13:42:36;28.30;;;15.97;;
20170;SDS011;10245;51.344;6.620;2023-12-07T13:45:00;22.00;;;15.80;;
20170;SDS011;10245;51.344;6.620;2023-12-07T13:47:25;25.27;;;16.30;;
20170;SDS011;10245;51.344;6.620;2023-12-07T13:49:52;24.27;;;15.80;;
20170;SDS011;10245;51.344;6.620;2023-12-07T13:52:15;22.40;;;14.70;;
20170;SDS011;10245;51.344;6.620;2023-12-07T13:54:40;21.10;;;15.33;;
20170;SDS011;10245;51.344;6.620;2023-12-07T13:57:14;20.40;;;14.23;;
20170;SDS011;10245;51.344;6.620;2023-12-07T13:59:38;21.20;;;14.40;;
20170;SDS011;10245;51.344;6.620;2023-12-07T14:02:02;27.23;;;16.33;;
20170;SDS011;10245;51.344;6.620;2023-12-07T14:04:26;20.20;;;14.37;;
20170;SDS011;10245;51.344;6.620;2023-12-07T14:06:50;25.67;;;16.25;;